sensor_id;sensor_type;location;lat;lon;timestamp;pressure;altitude;pressure_sealevel;temperature;humidity
18697;BME280;22617;43.690;27.956;2022-10-22T00:02:31;99773.22;;;8.82;75.13
18697;BME280;22617;43.690;27.956;2022-10-22T00:07:34;99771.41;;;8.80;75.20
18697;BME280;22617;43.690;27.956;2022-10-22T00:12:38;99769.69;;;8.80;75.18
18697;BME280;22617;43.690;27.956;2022-10-22T00:17:43;99759.19;;;8.72;75.56
18697;BME280;22617;43.690;27.956;2022-10-22T00:22:47;99754.00;;;8.72;75.19
18697;BME280;22617;43.690;27.956;2022-10-22T00:27:54;99747.91;;;8.73;74.46
18697;BME280;22617;43.690;27.956;2022-10-22T00:32:59;99739.03;;;8.58;75.17
18697;BME280;22617;43.690;27.956;2022-10-22T00:38:02;99739.16;;;8.65;75.42
18697;BME280;22617;43.690;27.956;2022-10-22T00:43:09;99737.31;;;8.58;75.49
18697;BME280;22617;43.690;27.956;2022-10-22T00:48:17;99729.47;;;8.55;75.92
18697;BME280;22617;43.690;27.956;2022-10-22T00:53:24;99718.09;;;8.47;75.47
18697;BME280;22617;43.690;27.956;2022-10-22T00:58:30;99706.94;;;8.56;75.74
18697;BME280;22617;43.690;27.956;2022-10-22T01:03:37;99710.47;;;8.59;76.21
18697;BME280;22617;43.690;27.956;2022-10-22T01:08:45;99703.63;;;8.64;76.82
18697;BME280;22617;43.690;27.956;2022-10-22T01:13:57;99703.41;;;8.51;77.17
18697;BME280;22617;43.690;27.956;2022-10-22T01:19:19;99689.59;;;8.53;77.00
18697;BME280;22617;43.690;27.956;2022-10-22T01:24:34;99689.44;;;8.43;77.66
18697;BME280;22617;43.690;27.956;2022-10-22T01:29:45;99684.22;;;8.41;78.22
18697;BME280;22617;43.690;27.956;2022-10-22T01:34:52;99681.72;;;8.47;78.64
18697;BME280;22617;43.690;27.956;2022-10-22T01:39:58;99677.47;;;8.52;79.23
18697;BME280;22617;43.690;27.956;2022-10-22T01:45:11;99674.97;;;8.58;78.86
18697;BME280;22617;43.690;27.956;2022-10-22T01:50:31;99690.59;;;8.61;78.62
18697;BME280;22617;43.690;27.956;2022-10-22T01:55:42;99684.28;;;8.46;78.95
18697;BME280;22617;43.690;27.956;2022-10-22T02:00:57;99674.72;;;8.43;79.20
18697;BME280;22617;43.690;27.956;2022-10-22T02:06:11;99672.22;;;8.51;79.49
18697;BME280;22617;43.690;27.956;2022-10-22T02:11:16;99673.91;;;8.47;79.28
18697;BME280;22617;43.690;27.956;2022-10-22T02:16:26;99674.16;;;8.62;78.44
18697;BME280;22617;43.690;27.956;2022-10-22T02:21:31;99666.34;;;8.62;78.08
18697;BME280;22617;43.690;27.956;2022-10-22T02:26:38;99660.31;;;8.65;77.52
18697;BME280;22617;43.690;27.956;2022-10-22T02:31:45;99666.47;;;8.71;77.56
18697;BME280;22617;43.690;27.956;2022-10-22T02:36:51;99663.03;;;8.74;76.60
18697;BME280;22617;43.690;27.956;2022-10-22T02:41:55;99667.31;;;8.70;76.11
18697;BME280;22617;43.690;27.956;2022-10-22T02:47:00;99656.97;;;8.72;76.07
18697;BME280;22617;43.690;27.956;2022-10-22T02:52:04;99657.03;;;8.78;75.74
18697;BME280;22617;43.690;27.956;2022-10-22T02:57:07;99660.28;;;8.63;75.91
18697;BME280;22617;43.690;27.956;2022-10-22T03:02:18;99655.97;;;8.62;75.52
18697;BME280;22617;43.690;27.956;2022-10-22T03:07:22;99646.63;;;8.77;75.23
18697;BME280;22617;43.690;27.956;2022-10-22T03:12:25;99640.81;;;8.96;73.87
18697;BME280;22617;43.690;27.956;2022-10-22T03:17:30;99643.50;;;9.03;72.57
18697;BME280;22617;43.690;27.956;2022-10-22T03:22:34;99638.34;;;9.06;72.57
18697;BME280;22617;43.690;27.956;2022-10-22T03:27:39;99652.31;;;9.16;72.16
18697;BME280;22617;43.690;27.956;2022-10-22T03:32:46;99652.22;;;9.08;71.52
18697;BME280;22617;43.690;27.956;2022-10-22T03:37:49;99652.28;;;9.13;71.35
18697;BME280;22617;43.690;27.956;2022-10-22T03:42:53;99649.72;;;9.14;70.95
18697;BME280;22617;43.690;27.956;2022-10-22T03:47:58;99651.34;;;9.06;71.10
18697;BME280;22617;43.690;27.956;2022-10-22T03:53:02;99641.75;;;9.02;71.16
18697;BME280;22617;43.690;27.956;2022-10-22T03:58:06;99633.94;;;9.02;70.58
18697;BME280;22617;43.690;27.956;2022-10-22T04:03:11;99621.88;;;9.06;70.66
18697;BME280;22617;43.690;27.956;2022-10-22T04:08:14;99623.53;;;8.99;70.19
18697;BME280;22617;43.690;27.956;2022-10-22T04:13:18;99624.22;;;8.88;70.23
18697;BME280;22617;43.690;27.956;2022-10-22T04:18:22;99623.38;;;8.89;70.20
18697;BME280;22617;43.690;27.956;2022-10-22T04:23:26;99616.38;;;8.82;70.14
18697;BME280;22617;43.690;27.956;2022-10-22T04:28:29;99605.09;;;8.83;70.02
18697;BME280;22617;43.690;27.956;2022-10-22T04:33:34;99607.75;;;8.86;70.24
18697;BME280;22617;43.690;27.956;2022-10-22T04:38:38;99586.13;;;8.88;70.09
18697;BME280;22617;43.690;27.956;2022-10-22T04:43:42;99581.06;;;8.99;69.97
18697;BME280;22617;43.690;27.956;2022-10-22T04:48:47;99579.28;;;8.98;70.14
18697;BME280;22617;43.690;27.956;2022-10-22T04:53:50;99586.16;;;8.91;69.85
18697;BME280;22617;43.690;27.956;2022-10-22T04:58:56;99587.19;;;9.07;69.77
18697;BME280;22617;43.690;27.956;2022-10-22T05:04:02;99590.78;;;9.16;69.69
18697;BME280;22617;43.690;27.956;2022-10-22T05:09:10;99581.44;;;9.34;69.19
18697;BME280;22617;43.690;27.956;2022-10-22T05:14:14;99591.13;;;9.48;68.83
18697;BME280;22617;43.690;27.956;2022-10-22T05:19:22;99604.31;;;9.70;68.00
18697;BME280;22617;43.690;27.956;2022-10-22T05:24:27;99602.66;;;9.73;67.94
18697;BME280;22617;43.690;27.956;2022-10-22T05:29:30;99596.63;;;9.83;68.01
18697;BME280;22617;43.690;27.956;2022-10-22T05:34:35;99598.47;;;9.93;67.63
18697;BME280;22617;43.690;27.956;2022-10-22T05:39:39;99584.66;;;10.05;67.05
18697;BME280;22617;43.690;27.956;2022-10-22T05:44:42;99586.56;;;10.24;67.10
18697;BME280;22617;43.690;27.956;2022-10-22T05:49:47;99595.31;;;10.32;66.92
18697;BME280;22617;43.690;27.956;2022-10-22T05:54:51;99594.56;;;10.50;66.07
18697;BME280;22617;43.690;27.956;2022-10-22T05:59:54;99589.44;;;10.64;66.29
18697;BME280;22617;43.690;27.956;2022-10-22T06:04:59;99603.47;;;10.88;65.44
18697;BME280;22617;43.690;27.956;2022-10-22T06:10:04;99605.31;;;11.27;64.46
18697;BME280;22617;43.690;27.956;2022-10-22T06:15:08;99608.84;;;11.48;64.38
18697;BME280;22617;43.690;27.956;2022-10-22T06:20:14;99599.31;;;11.63;64.30
18697;BME280;22617;43.690;27.956;2022-10-22T06:25:17;99592.41;;;11.73;63.85
18697;BME280;22617;43.690;27.956;2022-10-22T06:30:21;99580.19;;;11.90;63.14
18697;BME280;22617;43.690;27.956;2022-10-22T06:35:25;99581.06;;;12.13;63.11
18697;BME280;22617;43.690;27.956;2022-10-22T06:40:29;99580.16;;;12.40;62.36
18697;BME280;22617;43.690;27.956;2022-10-22T06:45:33;99574.78;;;12.81;61.30
18697;BME280;22617;43.690;27.956;2022-10-22T06:50:38;99581.69;;;13.03;60.56
18697;BME280;22617;43.690;27.956;2022-10-22T06:55:41;99559.78;;;13.27;59.39
18697;BME280;22617;43.690;27.956;2022-10-22T07:00:45;99577.25;;;13.27;59.42
18697;BME280;22617;43.690;27.956;2022-10-22T07:05:50;99576.38;;;13.25;60.09
18697;BME280;22617;43.690;27.956;2022-10-22T07:10:54;99571.09;;;13.29;59.54
18697;BME280;22617;43.690;27.956;2022-10-22T07:15:57;99563.22;;;13.34;59.20
18697;BME280;22617;43.690;27.956;2022-10-22T07:21:03;99563.19;;;13.40;59.06
18697;BME280;22617;43.690;27.956;2022-10-22T07:26:07;99569.19;;;13.54;58.41
18697;BME280;22617;43.690;27.956;2022-10-22T07:31:13;99567.25;;;13.83;58.13
18697;BME280;22617;43.690;27.956;2022-10-22T07:36:18;99556.59;;;14.02;57.66
18697;BME280;22617;43.690;27.956;2022-10-22T07:41:21;99569.53;;;14.23;58.29
18697;BME280;22617;43.690;27.956;2022-10-22T07:46:25;99547.47;;;14.45;57.77
18697;BME280;22617;43.690;27.956;2022-10-22T07:51:30;99548.28;;;14.49;56.81
18697;BME280;22617;43.690;27.956;2022-10-22T07:56:34;99557.78;;;14.60;56.64
18697;BME280;22617;43.690;27.956;2022-10-22T08:01:37;99541.25;;;15.21;56.24
18697;BME280;22617;43.690;27.956;2022-10-22T08:06:42;99532.97;;;15.53;55.13
18697;BME280;22617;43.690;27.956;2022-10-22T08:11:48;99530.91;;;15.72;54.09
18697;BME280;22617;43.690;27.956;2022-10-22T08:16:51;99523.00;;;15.72;54.31
18697;BME280;22617;43.690;27.956;2022-10-22T08:21:56;99527.66;;;15.54;54.47
18697;BME280;22617;43.690;27.956;2022-10-22T08:26:59;99522.75;;;15.87;54.34
18697;BME280;22617;43.690;27.956;2022-10-22T08:32:04;99513.88;;;15.94;53.94
18697;BME280;22617;43.690;27.956;2022-10-22T08:37:11;99511.22;;;15.95;52.94
18697;BME280;22617;43.690;27.956;2022-10-22T08:42:42;99523.75;;;16.30;52.61
18697;BME280;22617;43.690;27.956;2022-10-22T08:48:03;99519.03;;;16.46;52.34
18697;BME280;22617;43.690;27.956;2022-10-22T08:53:16;99517.78;;;16.67;51.97
18697;BME280;22617;43.690;27.956;2022-10-22T08:58:24;99510.88;;;16.60;51.03
18697;BME280;22617;43.690;27.956;2022-10-22T09:03:35;99505.66;;;16.56;52.20
18697;BME280;22617;43.690;27.956;2022-10-22T09:08:42;99507.53;;;16.51;51.54
18697;BME280;22617;43.690;27.956;2022-10-22T09:13:47;99507.03;;;16.77;51.97
18697;BME280;22617;43.690;27.956;2022-10-22T09:19:05;99498.59;;;16.62;52.28
18697;BME280;22617;43.690;27.956;2022-10-22T09:24:19;99508.56;;;16.44;52.10
18697;BME280;22617;43.690;27.956;2022-10-22T09:29:31;99506.16;;;16.31;52.74
18697;BME280;22617;43.690;27.956;2022-10-22T09:34:35;99510.50;;;16.33;52.59
18697;BME280;22617;43.690;27.956;2022-10-22T09:39:43;99508.66;;;16.40;51.94
18697;BME280;22617;43.690;27.956;2022-10-22T09:44:51;99505.16;;;16.39;51.59
18697;BME280;22617;43.690;27.956;2022-10-22T09:50:08;99494.88;;;16.26;51.00
18697;BME280;22617;43.690;27.956;2022-10-22T09:55:20;99486.84;;;16.33;51.64
18697;BME280;22617;43.690;27.956;2022-10-22T10:00:26;99480.72;;;16.33;51.90
18697;BME280;22617;43.690;27.956;2022-10-22T10:05:31;99471.66;;;16.46;51.46
18697;BME280;22617;43.690;27.956;2022-10-22T10:10:42;99464.28;;;16.65;50.92
18697;BME280;22617;43.690;27.956;2022-10-22T10:15:52;99458.13;;;16.66;51.00
18697;BME280;22617;43.690;27.956;2022-10-22T10:21:03;99427.31;;;16.71;51.36
18697;BME280;22617;43.690;27.956;2022-10-22T10:26:14;99417.00;;;17.00;50.94
18697;BME280;22617;43.690;27.956;2022-10-22T10:31:32;99412.28;;;17.50;50.46
18697;BME280;22617;43.690;27.956;2022-10-22T10:36:45;99404.91;;;17.64;49.15
18697;BME280;22617;43.690;27.956;2022-10-22T10:42:03;99396.75;;;17.37;49.25
18697;BME280;22617;43.690;27.956;2022-10-22T10:47:25;99376.44;;;17.41;49.70
18697;BME280;22617;43.690;27.956;2022-10-22T10:52:38;99374.75;;;17.74;48.81
18697;BME280;22617;43.690;27.956;2022-10-22T10:57:52;99375.06;;;17.94;48.21
18697;BME280;22617;43.690;27.956;2022-10-22T11:08:49;99362.06;;;17.88;48.57
18697;BME280;22617;43.690;27.956;2022-10-22T11:14:02;99357.44;;;17.96;48.12
18697;BME280;22617;43.690;27.956;2022-10-22T11:19:12;99365.34;;;17.96;48.45
18697;BME280;22617;43.690;27.956;2022-10-22T11:24:26;99349.25;;;18.36;48.49
18697;BME280;22617;43.690;27.956;2022-10-22T11:29:34;99339.44;;;18.40;50.83
18697;BME280;22617;43.690;27.956;2022-10-22T11:34:44;99335.63;;;18.50;51.77
18697;BME280;22617;43.690;27.956;2022-10-22T11:39:51;99317.00;;;18.82;50.60
18697;BME280;22617;43.690;27.956;2022-10-22T11:45:03;99326.31;;;18.66;52.44
18697;BME280;22617;43.690;27.956;2022-10-22T11:50:18;99324.09;;;18.80;51.82
18697;BME280;22617;43.690;27.956;2022-10-22T11:55:41;99317.03;;;18.53;51.31
18697;BME280;22617;43.690;27.956;2022-10-22T12:00:48;99308.56;;;18.71;53.15
18697;BME280;22617;43.690;27.956;2022-10-22T12:06:07;99316.31;;;19.03;52.24
18697;BME280;22617;43.690;27.956;2022-10-22T12:11:24;99306.09;;;19.70;51.88
18697;BME280;22617;43.690;27.956;2022-10-22T12:16:35;99306.53;;;19.81;49.53
18697;BME280;22617;43.690;27.956;2022-10-22T12:21:58;99303.00;;;19.33;51.24
18697;BME280;22617;43.690;27.956;2022-10-22T12:27:02;99314.66;;;18.99;51.36
18697;BME280;22617;43.690;27.956;2022-10-22T12:32:11;99286.06;;;18.59;51.77
18697;BME280;22617;43.690;27.956;2022-10-22T12:37:16;99281.28;;;18.43;52.24
18697;BME280;22617;43.690;27.956;2022-10-22T12:42:20;99271.97;;;18.31;52.98
18697;BME280;22617;43.690;27.956;2022-10-22T12:47:28;99274.53;;;18.33;53.82
18697;BME280;22617;43.690;27.956;2022-10-22T12:52:32;99278.84;;;18.37;54.06
18697;BME280;22617;43.690;27.956;2022-10-22T12:57:36;99280.50;;;18.11;54.63
18697;BME280;22617;43.690;27.956;2022-10-22T13:02:41;99290.28;;;17.77;56.39
18697;BME280;22617;43.690;27.956;2022-10-22T13:07:48;99290.03;;;17.54;57.32
18697;BME280;22617;43.690;27.956;2022-10-22T13:12:55;99274.50;;;17.43;57.86
18697;BME280;22617;43.690;27.956;2022-10-22T13:18:05;99256.97;;;17.10;58.79
18697;BME280;22617;43.690;27.956;2022-10-22T13:23:18;99254.63;;;16.99;59.55
18697;BME280;22617;43.690;27.956;2022-10-22T13:28:22;99247.84;;;16.89;59.23
18697;BME280;22617;43.690;27.956;2022-10-22T13:33:29;99243.06;;;16.69;60.56
18697;BME280;22617;43.690;27.956;2022-10-22T13:38:35;99260.78;;;16.64;61.44
18697;BME280;22617;43.690;27.956;2022-10-22T13:43:39;99261.97;;;16.49;61.76
18697;BME280;22617;43.690;27.956;2022-10-22T13:48:45;99260.72;;;16.27;62.08
18697;BME280;22617;43.690;27.956;2022-10-22T13:53:50;99263.41;;;16.26;62.54
18697;BME280;22617;43.690;27.956;2022-10-22T13:58:54;99250.28;;;16.24;62.30
18697;BME280;22617;43.690;27.956;2022-10-22T14:04:00;99254.00;;;16.16;62.69
18697;BME280;22617;43.690;27.956;2022-10-22T14:09:05;99245.50;;;16.03;62.89
18697;BME280;22617;43.690;27.956;2022-10-22T14:14:10;99243.72;;;16.05;62.88
18697;BME280;22617;43.690;27.956;2022-10-22T14:19:17;99235.16;;;15.95;63.39
18697;BME280;22617;43.690;27.956;2022-10-22T14:24:21;99231.78;;;15.89;63.08
18697;BME280;22617;43.690;27.956;2022-10-22T14:29:29;99229.75;;;15.61;64.19
18697;BME280;22617;43.690;27.956;2022-10-22T14:34:34;99227.19;;;15.58;64.71
18697;BME280;22617;43.690;27.956;2022-10-22T14:39:38;99210.38;;;15.65;64.57
18697;BME280;22617;43.690;27.956;2022-10-22T14:44:41;99203.75;;;15.46;65.03
18697;BME280;22617;43.690;27.956;2022-10-22T14:49:46;99198.69;;;15.37;65.58
18697;BME280;22617;43.690;27.956;2022-10-22T14:54:50;99199.84;;;15.24;65.84
18697;BME280;22617;43.690;27.956;2022-10-22T14:59:54;99188.69;;;15.11;65.98
18697;BME280;22617;43.690;27.956;2022-10-22T15:04:59;99184.47;;;15.03;66.43
18697;BME280;22617;43.690;27.956;2022-10-22T15:10:05;99187.13;;;15.01;66.28
18697;BME280;22617;43.690;27.956;2022-10-22T15:15:10;99188.16;;;14.94;66.72
18697;BME280;22617;43.690;27.956;2022-10-22T15:20:15;99183.09;;;14.82;66.70
18697;BME280;22617;43.690;27.956;2022-10-22T15:25:19;99177.94;;;14.77;66.97
18697;BME280;22617;43.690;27.956;2022-10-22T15:30:22;99174.53;;;14.72;67.12
18697;BME280;22617;43.690;27.956;2022-10-22T15:35:27;99185.97;;;14.70;66.78
18697;BME280;22617;43.690;27.956;2022-10-22T15:40:31;99194.03;;;14.59;67.04
18697;BME280;22617;43.690;27.956;2022-10-22T15:45:34;99185.16;;;14.66;67.08
18697;BME280;22617;43.690;27.956;2022-10-22T15:50:39;99196.69;;;14.58;67.27
18697;BME280;22617;43.690;27.956;2022-10-22T15:55:47;99199.31;;;14.56;67.12
18697;BME280;22617;43.690;27.956;2022-10-22T16:00:51;99196.72;;;14.53;67.30
18697;BME280;22617;43.690;27.956;2022-10-22T16:05:55;99197.75;;;14.46;67.80
18697;BME280;22617;43.690;27.956;2022-10-22T16:10:59;99198.59;;;14.48;67.87
18697;BME280;22617;43.690;27.956;2022-10-22T16:16:04;99208.38;;;14.37;68.02
18697;BME280;22617;43.690;27.956;2022-10-22T16:21:12;99201.34;;;14.40;68.34
18697;BME280;22617;43.690;27.956;2022-10-22T16:26:17;99212.75;;;14.38;68.50
18697;BME280;22617;43.690;27.956;2022-10-22T16:31:21;99215.38;;;14.38;68.38
18697;BME280;22617;43.690;27.956;2022-10-22T16:36:26;99208.44;;;14.31;69.13
18697;BME280;22617;43.690;27.956;2022-10-22T16:41:29;99201.44;;;14.31;69.48
18697;BME280;22617;43.690;27.956;2022-10-22T16:46:36;99211.06;;;14.32;69.39
18697;BME280;22617;43.690;27.956;2022-10-22T16:51:41;99206.72;;;14.30;69.80
18697;BME280;22617;43.690;27.956;2022-10-22T16:56:44;99200.56;;;14.32;70.17
18697;BME280;22617;43.690;27.956;2022-10-22T17:01:48;99209.25;;;14.37;70.22
18697;BME280;22617;43.690;27.956;2022-10-22T17:06:53;99206.69;;;14.33;70.74
18697;BME280;22617;43.690;27.956;2022-10-22T17:11:56;99205.81;;;14.32;70.81
18697;BME280;22617;43.690;27.956;2022-10-22T17:17:00;99210.06;;;14.43;70.55
18697;BME280;22617;43.690;27.956;2022-10-22T17:22:04;99197.81;;;14.42;70.72
18697;BME280;22617;43.690;27.956;2022-10-22T17:27:08;99198.03;;;14.28;71.11
18697;BME280;22617;43.690;27.956;2022-10-22T17:32:13;99189.44;;;14.15;71.43
18697;BME280;22617;43.690;27.956;2022-10-22T17:37:20;99191.91;;;14.26;71.27
18697;BME280;22617;43.690;27.956;2022-10-22T17:42:23;99168.25;;;14.30;71.44
18697;BME280;22617;43.690;27.956;2022-10-22T17:47:27;99169.94;;;14.36;71.13
18697;BME280;22617;43.690;27.956;2022-10-22T17:52:32;99168.22;;;14.33;70.71
18697;BME280;22617;43.690;27.956;2022-10-22T17:57:36;99170.84;;;14.33;71.08
18697;BME280;22617;43.690;27.956;2022-10-22T18:02:40;99156.06;;;14.28;70.96
18697;BME280;22617;43.690;27.956;2022-10-22T18:07:46;99150.19;;;14.12;71.33
18697;BME280;22617;43.690;27.956;2022-10-22T18:12:49;99156.31;;;14.13;71.51
18697;BME280;22617;43.690;27.956;2022-10-22T18:17:53;99147.56;;;14.12;71.84
18697;BME280;22617;43.690;27.956;2022-10-22T18:22:58;99146.69;;;14.15;71.85
18697;BME280;22617;43.690;27.956;2022-10-22T18:28:01;99148.38;;;14.16;72.04
18697;BME280;22617;43.690;27.956;2022-10-22T18:33:05;99130.88;;;14.18;72.21
18697;BME280;22617;43.690;27.956;2022-10-22T18:38:10;99140.38;;;14.25;72.28
18697;BME280;22617;43.690;27.956;2022-10-22T18:43:14;99134.09;;;14.38;71.54
18697;BME280;22617;43.690;27.956;2022-10-22T18:48:19;99148.13;;;14.31;72.02
18697;BME280;22617;43.690;27.956;2022-10-22T18:53:25;99152.47;;;14.33;72.14
18697;BME280;22617;43.690;27.956;2022-10-22T18:58:29;99158.56;;;14.38;71.92
18697;BME280;22617;43.690;27.956;2022-10-22T19:03:33;99155.09;;;14.33;71.78
18697;BME280;22617;43.690;27.956;2022-10-22T19:08:38;99140.28;;;14.31;71.61
18697;BME280;22617;43.690;27.956;2022-10-22T19:13:42;99140.25;;;14.32;70.99
18697;BME280;22617;43.690;27.956;2022-10-22T19:18:45;99134.97;;;14.37;70.44
18697;BME280;22617;43.690;27.956;2022-10-22T19:23:50;99125.38;;;14.33;70.60
18697;BME280;22617;43.690;27.956;2022-10-22T19:28:54;99127.97;;;14.36;70.80
18697;BME280;22617;43.690;27.956;2022-10-22T19:33:58;99133.13;;;14.42;70.53
18697;BME280;22617;43.690;27.956;2022-10-22T19:39:04;99122.63;;;14.42;70.48
18697;BME280;22617;43.690;27.956;2022-10-22T19:44:08;99109.53;;;14.40;70.48
18697;BME280;22617;43.690;27.956;2022-10-22T19:49:12;99113.09;;;14.38;70.70
18697;BME280;22617;43.690;27.956;2022-10-22T19:54:24;99108.69;;;14.40;70.64
18697;BME280;22617;43.690;27.956;2022-10-22T19:59:27;99105.16;;;14.41;70.94
18697;BME280;22617;43.690;27.956;2022-10-22T20:04:34;99096.44;;;14.39;70.44
18697;BME280;22617;43.690;27.956;2022-10-22T20:09:39;99098.16;;;14.43;70.20
18697;BME280;22617;43.690;27.956;2022-10-22T20:14:43;99083.38;;;14.34;70.68
18697;BME280;22617;43.690;27.956;2022-10-22T20:19:46;99080.75;;;14.34;70.36
18697;BME280;22617;43.690;27.956;2022-10-22T20:24:51;99086.88;;;14.38;69.91
18697;BME280;22617;43.690;27.956;2022-10-22T20:29:55;99087.75;;;14.35;69.19
18697;BME280;22617;43.690;27.956;2022-10-22T20:34:58;99087.94;;;14.25;68.92
18697;BME280;22617;43.690;27.956;2022-10-22T20:40:05;99075.91;;;14.15;68.81
18697;BME280;22617;43.690;27.956;2022-10-22T20:45:09;99083.88;;;14.07;68.52
18697;BME280;22617;43.690;27.956;2022-10-22T20:50:13;99076.97;;;14.02;67.81
18697;BME280;22617;43.690;27.956;2022-10-22T20:55:18;99072.69;;;13.97;67.74
18697;BME280;22617;43.690;27.956;2022-10-22T21:00:22;99075.31;;;13.97;67.69
18697;BME280;22617;43.690;27.956;2022-10-22T21:05:26;99085.72;;;14.01;67.21
18697;BME280;22617;43.690;27.956;2022-10-22T21:10:31;99080.63;;;13.91;67.16
18697;BME280;22617;43.690;27.956;2022-10-22T21:15:34;99074.66;;;13.85;67.42
18697;BME280;22617;43.690;27.956;2022-10-22T21:20:37;99063.22;;;13.90;67.14
18697;BME280;22617;43.690;27.956;2022-10-22T21:25:53;99058.00;;;13.87;67.44
18697;BME280;22617;43.690;27.956;2022-10-22T21:30:57;99051.72;;;13.97;67.05
18697;BME280;22617;43.690;27.956;2022-10-22T21:36:00;99030.75;;;13.97;67.17
18697;BME280;22617;43.690;27.956;2022-10-22T21:41:06;99029.88;;;13.97;66.79
18697;BME280;22617;43.690;27.956;2022-10-22T21:46:11;99035.91;;;14.02;66.82
18697;BME280;22617;43.690;27.956;2022-10-22T21:51:17;99021.06;;;14.01;66.74
18697;BME280;22617;43.690;27.956;2022-10-22T21:56:24;99007.94;;;14.04;66.54
18697;BME280;22617;43.690;27.956;2022-10-22T22:01:29;99014.03;;;14.05;66.59
18697;BME280;22617;43.690;27.956;2022-10-22T22:06:32;99013.44;;;13.90;66.66
18697;BME280;22617;43.690;27.956;2022-10-22T22:11:37;99013.63;;;13.78;66.83
18697;BME280;22617;43.690;27.956;2022-10-22T22:16:41;99017.34;;;13.62;66.68
18697;BME280;22617;43.690;27.956;2022-10-22T22:21:44;99012.41;;;13.45;67.11
18697;BME280;22617;43.690;27.956;2022-10-22T22:26:49;99006.44;;;13.37;67.32
18697;BME280;22617;43.690;27.956;2022-10-22T22:31:53;99011.75;;;13.30;66.68
18697;BME280;22617;43.690;27.956;2022-10-22T22:36:56;99008.84;;;13.51;64.94
18697;BME280;22617;43.690;27.956;2022-10-22T22:42:01;98999.31;;;13.44;64.04
18697;BME280;22617;43.690;27.956;2022-10-22T22:47:04;98986.22;;;13.47;63.19
18697;BME280;22617;43.690;27.956;2022-10-22T22:52:08;98985.22;;;13.52;62.93
18697;BME280;22617;43.690;27.956;2022-10-22T22:57:14;98992.13;;;13.58;62.22
18697;BME280;22617;43.690;27.956;2022-10-22T23:02:17;99007.03;;;13.53;62.50
18697;BME280;22617;43.690;27.956;2022-10-22T23:07:21;98999.47;;;13.36;63.25
18697;BME280;22617;43.690;27.956;2022-10-22T23:12:26;99005.06;;;13.12;64.10
18697;BME280;22617;43.690;27.956;2022-10-22T23:17:29;98987.06;;;12.86;65.03
18697;BME280;22617;43.690;27.956;2022-10-22T23:22:33;98976.03;;;12.64;65.34
18697;BME280;22617;43.690;27.956;2022-10-22T23:27:38;98976.88;;;12.65;64.54
18697;BME280;22617;43.690;27.956;2022-10-22T23:32:42;98999.31;;;12.84;63.22
18697;BME280;22617;43.690;27.956;2022-10-22T23:37:46;98985.53;;;12.70;64.15
18697;BME280;22617;43.690;27.956;2022-10-22T23:42:51;98972.88;;;12.37;65.45
18697;BME280;22617;43.690;27.956;2022-10-22T23:47:54;98959.16;;;12.16;66.02
18697;BME280;22617;43.690;27.956;2022-10-22T23:52:58;98968.66;;;12.23;65.49
18697;BME280;22617;43.690;27.956;2022-10-22T23:58:03;98962.53;;;12.26;66.07
